sensor_id;sensor_type;location;lat;lon;timestamp;P1;durP1;ratioP1;P2;durP2;ratioP2
9496;SDS011;4786;51.270;4.456;2022-11-18T00:02:18;3.87;;;2.37;;
9496;SDS011;4786;51.270;4.456;2022-11-18T00:04:44;4.30;;;2.50;;
9496;SDS011;4786;51.270;4.456;2022-11-18T00:07:10;4.00;;;2.77;;
9496;SDS011;4786;51.270;4.456;2022-11-18T00:09:36;6.03;;;2.73;;
9496;SDS011;4786;51.270;4.456;2022-11-18T00:12:02;4.70;;;2.67;;
9496;SDS011;4786;51.270;4.456;2022-11-18T00:14:46;5.97;;;2.60;;
9496;SDS011;4786;51.270;4.456;2022-11-18T00:17:12;6.80;;;2.80;;
9496;SDS011;4786;51.270;4.456;2022-11-18T00:19:38;5.53;;;2.60;;
9496;SDS011;4786;51.270;4.456;2022-11-18T00:22:06;5.53;;;2.23;;
9496;SDS011;4786;51.270;4.456;2022-11-18T00:24:35;8.07;;;2.93;;
9496;SDS011;4786;51.270;4.456;2022-11-18T00:27:01;4.43;;;2.43;;
9496;SDS011;4786;51.270;4.456;2022-11-18T00:29:27;5.70;;;2.63;;
9496;SDS011;4786;51.270;4.456;2022-11-18T00:31:55;4.23;;;2.50;;
9496;SDS011;4786;51.270;4.456;2022-11-18T00:34:22;3.90;;;2.50;;
9496;SDS011;4786;51.270;4.456;2022-11-18T00:36:48;5.10;;;2.40;;
9496;SDS011;4786;51.270;4.456;2022-11-18T00:39:15;4.50;;;2.33;;
9496;SDS011;4786;51.270;4.456;2022-11-18T00:41:43;5.80;;;2.40;;
9496;SDS011;4786;51.270;4.456;2022-11-18T00:44:27;6.47;;;2.97;;
9496;SDS011;4786;51.270;4.456;2022-11-18T00:46:53;4.53;;;2.20;;
9496;SDS011;4786;51.270;4.456;2022-11-18T00:49:22;3.20;;;2.30;;
9496;SDS011;4786;51.270;4.456;2022-11-18T00:51:48;5.90;;;2.60;;
9496;SDS011;4786;51.270;4.456;2022-11-18T00:54:14;5.17;;;2.20;;
9496;SDS011;4786;51.270;4.456;2022-11-18T00:56:41;4.73;;;2.40;;
9496;SDS011;4786;51.270;4.456;2022-11-18T00:59:06;5.60;;;2.43;;
9496;SDS011;4786;51.270;4.456;2022-11-18T01:01:32;4.43;;;2.50;;
9496;SDS011;4786;51.270;4.456;2022-11-18T01:03:59;4.80;;;2.50;;
9496;SDS011;4786;51.270;4.456;2022-11-18T01:06:24;5.40;;;2.53;;
9496;SDS011;4786;51.270;4.456;2022-11-18T01:08:50;4.30;;;2.40;;
9496;SDS011;4786;51.270;4.456;2022-11-18T01:11:16;4.03;;;2.27;;
9496;SDS011;4786;51.270;4.456;2022-11-18T01:14:00;3.47;;;2.40;;
9496;SDS011;4786;51.270;4.456;2022-11-18T01:16:27;5.23;;;2.30;;
9496;SDS011;4786;51.270;4.456;2022-11-18T01:18:53;4.73;;;2.43;;
9496;SDS011;4786;51.270;4.456;2022-11-18T01:21:20;4.80;;;2.50;;
9496;SDS011;4786;51.270;4.456;2022-11-18T01:23:46;3.23;;;2.40;;
9496;SDS011;4786;51.270;4.456;2022-11-18T01:26:12;2.60;;;2.20;;
9496;SDS011;4786;51.270;4.456;2022-11-18T01:28:40;5.13;;;2.50;;
9496;SDS011;4786;51.270;4.456;2022-11-18T01:31:10;4.47;;;2.30;;
9496;SDS011;4786;51.270;4.456;2022-11-18T01:33:41;4.80;;;2.10;;
9496;SDS011;4786;51.270;4.456;2022-11-18T01:36:17;2.80;;;2.00;;
9496;SDS011;4786;51.270;4.456;2022-11-18T01:38:45;4.03;;;2.43;;
9496;SDS011;4786;51.270;4.456;2022-11-18T01:41:12;3.53;;;2.27;;
9496;SDS011;4786;51.270;4.456;2022-11-18T01:46:15;4.37;;;2.50;;
9496;SDS011;4786;51.270;4.456;2022-11-18T01:48:41;4.07;;;2.30;;
9496;SDS011;4786;51.270;4.456;2022-11-18T01:51:10;5.00;;;2.63;;
9496;SDS011;4786;51.270;4.456;2022-11-18T01:53:41;5.43;;;2.50;;
9496;SDS011;4786;51.270;4.456;2022-11-18T01:56:13;7.27;;;2.63;;
9496;SDS011;4786;51.270;4.456;2022-11-18T01:58:43;3.97;;;2.30;;
9496;SDS011;4786;51.270;4.456;2022-11-18T02:01:14;3.80;;;2.40;;
9496;SDS011;4786;51.270;4.456;2022-11-18T02:03:39;5.87;;;2.50;;
9496;SDS011;4786;51.270;4.456;2022-11-18T02:06:07;3.87;;;2.33;;
9496;SDS011;4786;51.270;4.456;2022-11-18T02:08:34;3.13;;;2.13;;
9496;SDS011;4786;51.270;4.456;2022-11-18T02:11:02;5.27;;;2.30;;
9496;SDS011;4786;51.270;4.456;2022-11-18T02:13:28;5.20;;;2.30;;
9496;SDS011;4786;51.270;4.456;2022-11-18T02:21:28;3.97;;;2.57;;
9496;SDS011;4786;51.270;4.456;2022-11-18T02:32:30;3.03;;;2.07;;
9496;SDS011;4786;51.270;4.456;2022-11-18T02:35:04;4.10;;;2.37;;
9496;SDS011;4786;51.270;4.456;2022-11-18T02:37:48;4.33;;;2.13;;
9496;SDS011;4786;51.270;4.456;2022-11-18T02:43:04;8.43;;;2.37;;
9496;SDS011;4786;51.270;4.456;2022-11-18T02:45:35;3.37;;;2.10;;
9496;SDS011;4786;51.270;4.456;2022-11-18T02:48:07;6.10;;;2.40;;
9496;SDS011;4786;51.270;4.456;2022-11-18T02:50:35;3.23;;;2.10;;
9496;SDS011;4786;51.270;4.456;2022-11-18T02:53:03;7.17;;;2.50;;
9496;SDS011;4786;51.270;4.456;2022-11-18T02:55:32;4.37;;;2.30;;
9496;SDS011;4786;51.270;4.456;2022-11-18T02:58:01;5.60;;;2.23;;
9496;SDS011;4786;51.270;4.456;2022-11-18T03:00:29;3.87;;;2.30;;
9496;SDS011;4786;51.270;4.456;2022-11-18T03:02:56;5.60;;;2.30;;
9496;SDS011;4786;51.270;4.456;2022-11-18T03:05:25;3.90;;;2.40;;
9496;SDS011;4786;51.270;4.456;2022-11-18T03:08:18;4.73;;;2.53;;
9496;SDS011;4786;51.270;4.456;2022-11-18T03:10:55;4.40;;;2.50;;
9496;SDS011;4786;51.270;4.456;2022-11-18T03:13:37;3.00;;;2.13;;
9496;SDS011;4786;51.270;4.456;2022-11-18T03:16:19;3.57;;;2.20;;
9496;SDS011;4786;51.270;4.456;2022-11-18T03:18:52;4.03;;;2.43;;
9496;SDS011;4786;51.270;4.456;2022-11-18T03:21:31;4.87;;;2.40;;
9496;SDS011;4786;51.270;4.456;2022-11-18T03:24:09;5.47;;;2.60;;
9496;SDS011;4786;51.270;4.456;2022-11-18T03:26:45;6.13;;;2.90;;
9496;SDS011;4786;51.270;4.456;2022-11-18T03:29:35;4.60;;;2.40;;
9496;SDS011;4786;51.270;4.456;2022-11-18T03:32:15;4.27;;;2.47;;
9496;SDS011;4786;51.270;4.456;2022-11-18T03:34:46;3.27;;;2.03;;
9496;SDS011;4786;51.270;4.456;2022-11-18T03:37:17;3.87;;;2.50;;
9496;SDS011;4786;51.270;4.456;2022-11-18T03:39:47;3.63;;;2.27;;
9496;SDS011;4786;51.270;4.456;2022-11-18T03:42:20;5.33;;;2.70;;
9496;SDS011;4786;51.270;4.456;2022-11-18T03:44:55;5.43;;;2.53;;
9496;SDS011;4786;51.270;4.456;2022-11-18T03:47:30;5.77;;;2.73;;
9496;SDS011;4786;51.270;4.456;2022-11-18T03:50:00;6.77;;;2.60;;
9496;SDS011;4786;51.270;4.456;2022-11-18T03:52:45;5.63;;;2.70;;
9496;SDS011;4786;51.270;4.456;2022-11-18T03:55:15;7.00;;;2.73;;
9496;SDS011;4786;51.270;4.456;2022-11-18T03:58:30;4.33;;;2.50;;
9496;SDS011;4786;51.270;4.456;2022-11-18T04:00:34;6.60;;;2.80;;
9496;SDS011;4786;51.270;4.456;2022-11-18T04:03:04;5.43;;;2.87;;
9496;SDS011;4786;51.270;4.456;2022-11-18T04:05:32;4.07;;;2.53;;
9496;SDS011;4786;51.270;4.456;2022-11-18T04:08:02;6.93;;;2.50;;
9496;SDS011;4786;51.270;4.456;2022-11-18T04:10:36;4.77;;;2.70;;
9496;SDS011;4786;51.270;4.456;2022-11-18T04:15:44;3.93;;;2.70;;
9496;SDS011;4786;51.270;4.456;2022-11-18T04:18:10;3.63;;;2.40;;
9496;SDS011;4786;51.270;4.456;2022-11-18T04:20:37;5.03;;;2.40;;
9496;SDS011;4786;51.270;4.456;2022-11-18T04:23:04;4.80;;;3.00;;
9496;SDS011;4786;51.270;4.456;2022-11-18T04:25:30;4.50;;;2.80;;
9496;SDS011;4786;51.270;4.456;2022-11-18T04:27:57;4.10;;;2.77;;
9496;SDS011;4786;51.270;4.456;2022-11-18T04:30:22;6.53;;;2.83;;
9496;SDS011;4786;51.270;4.456;2022-11-18T04:32:48;4.20;;;2.40;;
9496;SDS011;4786;51.270;4.456;2022-11-18T04:35:14;4.40;;;2.70;;
9496;SDS011;4786;51.270;4.456;2022-11-18T04:37:40;4.10;;;2.60;;
9496;SDS011;4786;51.270;4.456;2022-11-18T04:40:06;5.77;;;2.53;;
9496;SDS011;4786;51.270;4.456;2022-11-18T04:42:33;4.77;;;2.60;;
9496;SDS011;4786;51.270;4.456;2022-11-18T04:44:59;4.93;;;2.80;;
9496;SDS011;4786;51.270;4.456;2022-11-18T04:47:24;5.70;;;2.63;;
9496;SDS011;4786;51.270;4.456;2022-11-18T04:49:50;5.87;;;2.80;;
9496;SDS011;4786;51.270;4.456;2022-11-18T04:52:16;4.97;;;2.87;;
9496;SDS011;4786;51.270;4.456;2022-11-18T04:54:42;4.57;;;2.70;;
9496;SDS011;4786;51.270;4.456;2022-11-18T04:57:08;5.67;;;2.80;;
9496;SDS011;4786;51.270;4.456;2022-11-18T04:59:34;7.17;;;2.70;;
9496;SDS011;4786;51.270;4.456;2022-11-18T05:02:00;5.73;;;2.60;;
9496;SDS011;4786;51.270;4.456;2022-11-18T05:04:27;5.10;;;2.50;;
9496;SDS011;4786;51.270;4.456;2022-11-18T05:06:54;5.27;;;2.70;;
9496;SDS011;4786;51.270;4.456;2022-11-18T05:09:21;6.27;;;2.77;;
9496;SDS011;4786;51.270;4.456;2022-11-18T05:11:47;5.03;;;2.70;;
9496;SDS011;4786;51.270;4.456;2022-11-18T05:14:32;4.70;;;2.70;;
9496;SDS011;4786;51.270;4.456;2022-11-18T05:16:59;6.77;;;2.77;;
9496;SDS011;4786;51.270;4.456;2022-11-18T05:19:26;5.47;;;2.63;;
9496;SDS011;4786;51.270;4.456;2022-11-18T05:21:52;5.63;;;2.50;;
9496;SDS011;4786;51.270;4.456;2022-11-18T05:24:19;4.27;;;2.60;;
9496;SDS011;4786;51.270;4.456;2022-11-18T05:26:45;4.17;;;2.70;;
9496;SDS011;4786;51.270;4.456;2022-11-18T05:29:10;4.93;;;2.90;;
9496;SDS011;4786;51.270;4.456;2022-11-18T05:31:36;5.00;;;3.10;;
9496;SDS011;4786;51.270;4.456;2022-11-18T05:34:02;5.13;;;2.77;;
9496;SDS011;4786;51.270;4.456;2022-11-18T05:36:28;7.03;;;2.80;;
9496;SDS011;4786;51.270;4.456;2022-11-18T05:38:57;7.07;;;2.80;;
9496;SDS011;4786;51.270;4.456;2022-11-18T05:41:23;4.73;;;2.73;;
9496;SDS011;4786;51.270;4.456;2022-11-18T05:44:09;8.47;;;3.00;;
9496;SDS011;4786;51.270;4.456;2022-11-18T05:46:35;4.83;;;2.97;;
9496;SDS011;4786;51.270;4.456;2022-11-18T05:49:01;5.43;;;3.30;;
9496;SDS011;4786;51.270;4.456;2022-11-18T05:51:26;6.23;;;3.40;;
9496;SDS011;4786;51.270;4.456;2022-11-18T05:53:52;5.03;;;3.03;;
9496;SDS011;4786;51.270;4.456;2022-11-18T05:56:24;6.17;;;3.13;;
9496;SDS011;4786;51.270;4.456;2022-11-18T05:58:51;5.67;;;2.80;;
9496;SDS011;4786;51.270;4.456;2022-11-18T06:01:28;5.90;;;3.33;;
9496;SDS011;4786;51.270;4.456;2022-11-18T06:04:00;5.13;;;2.70;;
9496;SDS011;4786;51.270;4.456;2022-11-18T06:06:28;7.50;;;2.80;;
9496;SDS011;4786;51.270;4.456;2022-11-18T06:08:55;6.80;;;2.83;;
9496;SDS011;4786;51.270;4.456;2022-11-18T06:11:26;5.60;;;3.37;;
9496;SDS011;4786;51.270;4.456;2022-11-18T06:13:59;7.03;;;2.93;;
9496;SDS011;4786;51.270;4.456;2022-11-18T06:16:30;6.57;;;2.97;;
9496;SDS011;4786;51.270;4.456;2022-11-18T06:18:58;6.07;;;3.00;;
9496;SDS011;4786;51.270;4.456;2022-11-18T06:21:25;6.73;;;2.90;;
9496;SDS011;4786;51.270;4.456;2022-11-18T06:23:51;8.40;;;3.17;;
9496;SDS011;4786;51.270;4.456;2022-11-18T06:26:19;8.70;;;3.00;;
9496;SDS011;4786;51.270;4.456;2022-11-18T06:28:45;5.63;;;3.13;;
9496;SDS011;4786;51.270;4.456;2022-11-18T06:31:11;5.10;;;2.77;;
9496;SDS011;4786;51.270;4.456;2022-11-18T06:33:37;6.53;;;2.93;;
9496;SDS011;4786;51.270;4.456;2022-11-18T06:36:03;7.93;;;3.20;;
9496;SDS011;4786;51.270;4.456;2022-11-18T06:38:29;7.90;;;2.87;;
9496;SDS011;4786;51.270;4.456;2022-11-18T06:40:58;6.23;;;2.53;;
9496;SDS011;4786;51.270;4.456;2022-11-18T06:43:24;7.37;;;2.70;;
9496;SDS011;4786;51.270;4.456;2022-11-18T06:46:22;9.03;;;3.13;;
9496;SDS011;4786;51.270;4.456;2022-11-18T06:49:06;8.27;;;2.67;;
9496;SDS011;4786;51.270;4.456;2022-11-18T06:51:32;18.93;;;2.93;;
9496;SDS011;4786;51.270;4.456;2022-11-18T06:53:58;8.83;;;2.93;;
9496;SDS011;4786;51.270;4.456;2022-11-18T06:56:24;7.80;;;2.97;;
9496;SDS011;4786;51.270;4.456;2022-11-18T06:58:53;8.30;;;3.00;;
9496;SDS011;4786;51.270;4.456;2022-11-18T07:01:22;9.73;;;3.03;;
9496;SDS011;4786;51.270;4.456;2022-11-18T07:03:49;9.33;;;2.97;;
9496;SDS011;4786;51.270;4.456;2022-11-18T07:06:18;8.43;;;2.60;;
9496;SDS011;4786;51.270;4.456;2022-11-18T07:08:45;6.03;;;2.97;;
9496;SDS011;4786;51.270;4.456;2022-11-18T07:11:13;8.07;;;2.67;;
9496;SDS011;4786;51.270;4.456;2022-11-18T07:13:40;7.13;;;2.60;;
9496;SDS011;4786;51.270;4.456;2022-11-18T07:16:07;7.53;;;2.90;;
9496;SDS011;4786;51.270;4.456;2022-11-18T07:18:36;10.33;;;2.87;;
9496;SDS011;4786;51.270;4.456;2022-11-18T07:21:03;9.07;;;3.13;;
9496;SDS011;4786;51.270;4.456;2022-11-18T07:23:31;5.67;;;2.80;;
9496;SDS011;4786;51.270;4.456;2022-11-18T07:25:59;4.90;;;2.53;;
9496;SDS011;4786;51.270;4.456;2022-11-18T07:28:26;6.83;;;2.90;;
9496;SDS011;4786;51.270;4.456;2022-11-18T07:30:59;5.10;;;2.83;;
9496;SDS011;4786;51.270;4.456;2022-11-18T07:33:29;9.97;;;3.50;;
9496;SDS011;4786;51.270;4.456;2022-11-18T07:36:03;7.60;;;2.80;;
9496;SDS011;4786;51.270;4.456;2022-11-18T07:38:30;5.37;;;2.87;;
9496;SDS011;4786;51.270;4.456;2022-11-18T07:41:15;5.10;;;3.10;;
9496;SDS011;4786;51.270;4.456;2022-11-18T07:43:43;4.83;;;2.70;;
9496;SDS011;4786;51.270;4.456;2022-11-18T07:46:13;10.20;;;3.10;;
9496;SDS011;4786;51.270;4.456;2022-11-18T07:48:51;6.10;;;2.97;;
9496;SDS011;4786;51.270;4.456;2022-11-18T07:51:21;5.50;;;3.10;;
9496;SDS011;4786;51.270;4.456;2022-11-18T07:53:49;7.17;;;2.97;;
9496;SDS011;4786;51.270;4.456;2022-11-18T07:56:15;6.27;;;2.90;;
9496;SDS011;4786;51.270;4.456;2022-11-18T07:58:41;5.53;;;3.03;;
9496;SDS011;4786;51.270;4.456;2022-11-18T08:03:41;7.67;;;3.13;;
9496;SDS011;4786;51.270;4.456;2022-11-18T08:06:08;9.53;;;3.20;;
9496;SDS011;4786;51.270;4.456;2022-11-18T08:08:35;5.37;;;3.07;;
9496;SDS011;4786;51.270;4.456;2022-11-18T08:11:02;7.87;;;2.90;;
9496;SDS011;4786;51.270;4.456;2022-11-18T08:13:33;9.57;;;3.27;;
9496;SDS011;4786;51.270;4.456;2022-11-18T08:15:58;7.97;;;2.60;;
9496;SDS011;4786;51.270;4.456;2022-11-18T08:18:26;9.00;;;3.00;;
9496;SDS011;4786;51.270;4.456;2022-11-18T08:21:00;7.73;;;3.00;;
9496;SDS011;4786;51.270;4.456;2022-11-18T08:23:29;7.70;;;3.20;;
9496;SDS011;4786;51.270;4.456;2022-11-18T08:26:00;7.40;;;3.07;;
9496;SDS011;4786;51.270;4.456;2022-11-18T08:28:28;10.00;;;3.07;;
9496;SDS011;4786;51.270;4.456;2022-11-18T08:30:54;8.43;;;3.33;;
9496;SDS011;4786;51.270;4.456;2022-11-18T08:33:19;5.77;;;3.00;;
9496;SDS011;4786;51.270;4.456;2022-11-18T08:35:45;8.40;;;3.23;;
9496;SDS011;4786;51.270;4.456;2022-11-18T08:38:10;8.77;;;3.10;;
9496;SDS011;4786;51.270;4.456;2022-11-18T08:40:36;10.33;;;3.47;;
9496;SDS011;4786;51.270;4.456;2022-11-18T08:43:03;9.93;;;3.40;;
9496;SDS011;4786;51.270;4.456;2022-11-18T08:45:29;10.10;;;3.03;;
9496;SDS011;4786;51.270;4.456;2022-11-18T08:47:55;7.47;;;2.80;;
9496;SDS011;4786;51.270;4.456;2022-11-18T08:50:21;7.77;;;2.70;;
9496;SDS011;4786;51.270;4.456;2022-11-18T08:52:47;6.10;;;3.00;;
9496;SDS011;4786;51.270;4.456;2022-11-18T08:55:13;10.03;;;3.40;;
9496;SDS011;4786;51.270;4.456;2022-11-18T08:57:39;9.40;;;3.30;;
9496;SDS011;4786;51.270;4.456;2022-11-18T09:00:05;9.20;;;3.57;;
9496;SDS011;4786;51.270;4.456;2022-11-18T09:02:32;11.30;;;3.47;;
9496;SDS011;4786;51.270;4.456;2022-11-18T09:04:57;8.43;;;3.30;;
9496;SDS011;4786;51.270;4.456;2022-11-18T09:07:24;7.10;;;3.53;;
9496;SDS011;4786;51.270;4.456;2022-11-18T09:09:50;8.00;;;3.03;;
9496;SDS011;4786;51.270;4.456;2022-11-18T09:12:16;7.10;;;3.17;;
9496;SDS011;4786;51.270;4.456;2022-11-18T09:14:45;7.20;;;3.37;;
9496;SDS011;4786;51.270;4.456;2022-11-18T09:17:11;5.53;;;3.57;;
9496;SDS011;4786;51.270;4.456;2022-11-18T09:19:38;6.80;;;3.20;;
9496;SDS011;4786;51.270;4.456;2022-11-18T09:22:04;5.80;;;3.30;;
9496;SDS011;4786;51.270;4.456;2022-11-18T09:24:30;6.63;;;3.23;;
9496;SDS011;4786;51.270;4.456;2022-11-18T09:26:56;8.17;;;3.40;;
9496;SDS011;4786;51.270;4.456;2022-11-18T09:29:22;5.73;;;3.07;;
9496;SDS011;4786;51.270;4.456;2022-11-18T09:31:50;8.27;;;3.20;;
9496;SDS011;4786;51.270;4.456;2022-11-18T09:34:19;7.57;;;3.63;;
9496;SDS011;4786;51.270;4.456;2022-11-18T09:36:45;6.47;;;3.17;;
9496;SDS011;4786;51.270;4.456;2022-11-18T09:39:12;9.00;;;3.20;;
9496;SDS011;4786;51.270;4.456;2022-11-18T09:49:39;5.17;;;3.30;;
9496;SDS011;4786;51.270;4.456;2022-11-18T09:52:23;7.00;;;3.10;;
9496;SDS011;4786;51.270;4.456;2022-11-18T09:54:55;9.13;;;3.50;;
9496;SDS011;4786;51.270;4.456;2022-11-18T09:58:06;10.57;;;3.60;;
9496;SDS011;4786;51.270;4.456;2022-11-18T10:00:21;5.40;;;2.80;;
9496;SDS011;4786;51.270;4.456;2022-11-18T10:08:30;6.60;;;2.70;;
9496;SDS011;4786;51.270;4.456;2022-11-18T10:19:01;6.23;;;3.30;;
9496;SDS011;4786;51.270;4.456;2022-11-18T10:24:34;6.87;;;3.13;;
9496;SDS011;4786;51.270;4.456;2022-11-18T10:27:07;8.80;;;3.73;;
9496;SDS011;4786;51.270;4.456;2022-11-18T10:29:38;5.97;;;3.20;;
9496;SDS011;4786;51.270;4.456;2022-11-18T10:32:05;6.83;;;3.07;;
9496;SDS011;4786;51.270;4.456;2022-11-18T10:35:21;11.77;;;3.13;;
9496;SDS011;4786;51.270;4.456;2022-11-18T10:37:47;8.50;;;2.93;;
9496;SDS011;4786;51.270;4.456;2022-11-18T10:40:30;11.13;;;3.67;;
9496;SDS011;4786;51.270;4.456;2022-11-18T10:42:57;8.83;;;3.27;;
9496;SDS011;4786;51.270;4.456;2022-11-18T10:50:37;7.00;;;3.47;;
9496;SDS011;4786;51.270;4.456;2022-11-18T10:53:04;9.10;;;3.20;;
9496;SDS011;4786;51.270;4.456;2022-11-18T10:56:00;7.33;;;3.23;;
9496;SDS011;4786;51.270;4.456;2022-11-18T10:58:31;7.20;;;3.50;;
9496;SDS011;4786;51.270;4.456;2022-11-18T11:03:40;6.33;;;3.03;;
9496;SDS011;4786;51.270;4.456;2022-11-18T11:11:24;6.90;;;3.87;;
9496;SDS011;4786;51.270;4.456;2022-11-18T11:14:12;10.97;;;3.73;;
9496;SDS011;4786;51.270;4.456;2022-11-18T11:17:09;8.27;;;3.50;;
9496;SDS011;4786;51.270;4.456;2022-11-18T11:22:28;6.83;;;3.50;;
9496;SDS011;4786;51.270;4.456;2022-11-18T11:24:55;8.07;;;3.53;;
9496;SDS011;4786;51.270;4.456;2022-11-18T11:30:02;8.53;;;3.50;;
9496;SDS011;4786;51.270;4.456;2022-11-18T11:35:48;8.57;;;3.60;;
9496;SDS011;4786;51.270;4.456;2022-11-18T11:38:42;7.43;;;3.60;;
9496;SDS011;4786;51.270;4.456;2022-11-18T11:41:24;5.67;;;3.17;;
9496;SDS011;4786;51.270;4.456;2022-11-18T11:49:14;13.07;;;3.97;;
9496;SDS011;4786;51.270;4.456;2022-11-18T11:51:55;7.37;;;3.27;;
9496;SDS011;4786;51.270;4.456;2022-11-18T11:54:32;10.07;;;3.40;;
9496;SDS011;4786;51.270;4.456;2022-11-18T12:00:00;9.23;;;4.00;;
9496;SDS011;4786;51.270;4.456;2022-11-18T12:05:35;7.97;;;3.60;;
9496;SDS011;4786;51.270;4.456;2022-11-18T12:08:20;8.20;;;3.40;;
9496;SDS011;4786;51.270;4.456;2022-11-18T12:24:31;9.20;;;4.00;;
9496;SDS011;4786;51.270;4.456;2022-11-18T12:32:30;12.17;;;3.90;;
9496;SDS011;4786;51.270;4.456;2022-11-18T12:40:31;7.27;;;3.60;;
9496;SDS011;4786;51.270;4.456;2022-11-18T12:42:57;7.93;;;3.63;;
9496;SDS011;4786;51.270;4.456;2022-11-18T12:48:30;8.87;;;3.77;;
9496;SDS011;4786;51.270;4.456;2022-11-18T12:53:41;9.07;;;3.33;;
9496;SDS011;4786;51.270;4.456;2022-11-18T12:56:10;6.60;;;3.23;;
9496;SDS011;4786;51.270;4.456;2022-11-18T12:58:54;10.13;;;3.63;;
9496;SDS011;4786;51.270;4.456;2022-11-18T13:01:25;8.43;;;3.70;;
9496;SDS011;4786;51.270;4.456;2022-11-18T13:04:05;7.33;;;3.20;;
9496;SDS011;4786;51.270;4.456;2022-11-18T13:06:32;10.10;;;3.70;;
9496;SDS011;4786;51.270;4.456;2022-11-18T13:08:59;7.20;;;3.03;;
9496;SDS011;4786;51.270;4.456;2022-11-18T13:11:28;8.47;;;3.00;;
9496;SDS011;4786;51.270;4.456;2022-11-18T13:14:17;7.17;;;3.13;;
9496;SDS011;4786;51.270;4.456;2022-11-18T13:23:16;6.27;;;3.30;;
9496;SDS011;4786;51.270;4.456;2022-11-18T13:26:29;9.23;;;3.60;;
9496;SDS011;4786;51.270;4.456;2022-11-18T13:34:25;6.87;;;3.20;;
9496;SDS011;4786;51.270;4.456;2022-11-18T13:36:53;7.70;;;3.27;;
9496;SDS011;4786;51.270;4.456;2022-11-18T13:39:21;7.70;;;3.17;;
9496;SDS011;4786;51.270;4.456;2022-11-18T13:41:59;8.60;;;3.73;;
9496;SDS011;4786;51.270;4.456;2022-11-18T13:44:38;8.10;;;3.50;;
9496;SDS011;4786;51.270;4.456;2022-11-18T13:55:38;7.97;;;3.37;;
9496;SDS011;4786;51.270;4.456;2022-11-18T14:00:58;8.03;;;3.50;;
9496;SDS011;4786;51.270;4.456;2022-11-18T14:05:56;7.17;;;3.17;;
9496;SDS011;4786;51.270;4.456;2022-11-18T14:08:33;7.97;;;3.20;;
9496;SDS011;4786;51.270;4.456;2022-11-18T14:11:00;7.50;;;3.07;;
9496;SDS011;4786;51.270;4.456;2022-11-18T14:16:01;8.30;;;3.83;;
9496;SDS011;4786;51.270;4.456;2022-11-18T14:18:46;8.13;;;4.10;;
9496;SDS011;4786;51.270;4.456;2022-11-18T14:21:13;9.20;;;3.50;;
9496;SDS011;4786;51.270;4.456;2022-11-18T14:23:50;8.53;;;3.90;;
9496;SDS011;4786;51.270;4.456;2022-11-18T14:26:24;8.87;;;3.47;;
9496;SDS011;4786;51.270;4.456;2022-11-18T14:29:02;6.60;;;3.70;;
9496;SDS011;4786;51.270;4.456;2022-11-18T14:31:41;5.73;;;3.27;;
9496;SDS011;4786;51.270;4.456;2022-11-18T14:34:20;7.23;;;3.70;;
9496;SDS011;4786;51.270;4.456;2022-11-18T14:36:50;9.10;;;3.60;;
9496;SDS011;4786;51.270;4.456;2022-11-18T14:39:25;8.77;;;3.80;;
9496;SDS011;4786;51.270;4.456;2022-11-18T14:41:56;12.33;;;4.33;;
9496;SDS011;4786;51.270;4.456;2022-11-18T14:44:24;9.07;;;4.03;;
9496;SDS011;4786;51.270;4.456;2022-11-18T14:46:58;5.70;;;3.70;;
9496;SDS011;4786;51.270;4.456;2022-11-18T14:49:29;12.13;;;4.17;;
9496;SDS011;4786;51.270;4.456;2022-11-18T14:51:56;10.03;;;4.07;;
9496;SDS011;4786;51.270;4.456;2022-11-18T14:54:26;10.13;;;4.23;;
9496;SDS011;4786;51.270;4.456;2022-11-18T14:56:53;7.63;;;3.87;;
9496;SDS011;4786;51.270;4.456;2022-11-18T14:59:22;8.70;;;4.10;;
9496;SDS011;4786;51.270;4.456;2022-11-18T15:01:48;7.50;;;3.80;;
9496;SDS011;4786;51.270;4.456;2022-11-18T15:04:14;9.27;;;3.90;;
9496;SDS011;4786;51.270;4.456;2022-11-18T15:06:41;8.97;;;4.20;;
9496;SDS011;4786;51.270;4.456;2022-11-18T15:09:07;9.13;;;4.53;;
9496;SDS011;4786;51.270;4.456;2022-11-18T15:11:34;8.57;;;4.70;;
9496;SDS011;4786;51.270;4.456;2022-11-18T15:14:00;8.90;;;5.27;;
9496;SDS011;4786;51.270;4.456;2022-11-18T15:16:27;12.47;;;5.37;;
9496;SDS011;4786;51.270;4.456;2022-11-18T15:18:57;7.17;;;4.50;;
9496;SDS011;4786;51.270;4.456;2022-11-18T15:21:25;12.60;;;4.27;;
9496;SDS011;4786;51.270;4.456;2022-11-18T15:23:52;8.83;;;4.27;;
9496;SDS011;4786;51.270;4.456;2022-11-18T15:26:25;13.10;;;4.77;;
9496;SDS011;4786;51.270;4.456;2022-11-18T15:28:59;11.73;;;5.00;;
9496;SDS011;4786;51.270;4.456;2022-11-18T15:31:25;12.97;;;5.17;;
9496;SDS011;4786;51.270;4.456;2022-11-18T15:33:51;9.50;;;4.63;;
9496;SDS011;4786;51.270;4.456;2022-11-18T15:36:18;9.30;;;4.13;;
9496;SDS011;4786;51.270;4.456;2022-11-18T15:38:48;9.93;;;4.77;;
9496;SDS011;4786;51.270;4.456;2022-11-18T15:41:16;8.43;;;4.63;;
9496;SDS011;4786;51.270;4.456;2022-11-18T15:43:49;8.40;;;4.63;;
9496;SDS011;4786;51.270;4.456;2022-11-18T15:46:17;10.13;;;5.07;;
9496;SDS011;4786;51.270;4.456;2022-11-18T15:48:45;6.77;;;4.67;;
9496;SDS011;4786;51.270;4.456;2022-11-18T15:51:11;8.90;;;4.90;;
9496;SDS011;4786;51.270;4.456;2022-11-18T15:53:37;11.47;;;5.03;;
9496;SDS011;4786;51.270;4.456;2022-11-18T15:56:13;11.27;;;5.90;;
9496;SDS011;4786;51.270;4.456;2022-11-18T15:58:40;8.97;;;4.67;;
9496;SDS011;4786;51.270;4.456;2022-11-18T16:01:05;11.60;;;4.63;;
9496;SDS011;4786;51.270;4.456;2022-11-18T16:03:32;8.33;;;4.07;;
9496;SDS011;4786;51.270;4.456;2022-11-18T16:05:58;11.57;;;3.93;;
9496;SDS011;4786;51.270;4.456;2022-11-18T16:08:24;10.60;;;4.57;;
9496;SDS011;4786;51.270;4.456;2022-11-18T16:10:55;6.63;;;3.87;;
9496;SDS011;4786;51.270;4.456;2022-11-18T16:13:40;8.73;;;4.30;;
9496;SDS011;4786;51.270;4.456;2022-11-18T16:16:07;8.73;;;4.03;;
9496;SDS011;4786;51.270;4.456;2022-11-18T16:18:41;8.20;;;3.50;;
9496;SDS011;4786;51.270;4.456;2022-11-18T16:21:07;8.30;;;4.17;;
9496;SDS011;4786;51.270;4.456;2022-11-18T16:23:33;4.77;;;3.47;;
9496;SDS011;4786;51.270;4.456;2022-11-18T16:25:59;6.17;;;3.90;;
9496;SDS011;4786;51.270;4.456;2022-11-18T16:28:25;11.23;;;4.63;;
9496;SDS011;4786;51.270;4.456;2022-11-18T16:30:51;7.90;;;3.80;;
9496;SDS011;4786;51.270;4.456;2022-11-18T16:33:35;7.43;;;4.10;;
9496;SDS011;4786;51.270;4.456;2022-11-18T16:36:01;7.03;;;4.10;;
9496;SDS011;4786;51.270;4.456;2022-11-18T16:38:28;10.73;;;4.10;;
9496;SDS011;4786;51.270;4.456;2022-11-18T16:40:57;9.63;;;4.17;;
9496;SDS011;4786;51.270;4.456;2022-11-18T16:43:24;7.43;;;4.20;;
9496;SDS011;4786;51.270;4.456;2022-11-18T16:45:51;6.10;;;4.30;;
9496;SDS011;4786;51.270;4.456;2022-11-18T16:48:18;7.20;;;4.60;;
9496;SDS011;4786;51.270;4.456;2022-11-18T16:50:48;8.93;;;4.50;;
9496;SDS011;4786;51.270;4.456;2022-11-18T16:53:24;7.43;;;4.17;;
9496;SDS011;4786;51.270;4.456;2022-11-18T16:55:52;10.27;;;4.93;;
9496;SDS011;4786;51.270;4.456;2022-11-18T16:58:18;9.23;;;4.90;;
9496;SDS011;4786;51.270;4.456;2022-11-18T17:00:44;6.77;;;4.40;;
9496;SDS011;4786;51.270;4.456;2022-11-18T17:03:10;12.20;;;4.87;;
9496;SDS011;4786;51.270;4.456;2022-11-18T17:05:36;10.60;;;5.00;;
9496;SDS011;4786;51.270;4.456;2022-11-18T17:08:02;9.17;;;4.60;;
9496;SDS011;4786;51.270;4.456;2022-11-18T17:10:28;7.83;;;3.90;;
9496;SDS011;4786;51.270;4.456;2022-11-18T17:12:54;7.97;;;4.20;;
9496;SDS011;4786;51.270;4.456;2022-11-18T17:15:20;4.83;;;3.80;;
9496;SDS011;4786;51.270;4.456;2022-11-18T17:17:46;9.30;;;4.07;;
9496;SDS011;4786;51.270;4.456;2022-11-18T17:20:13;7.87;;;4.10;;
9496;SDS011;4786;51.270;4.456;2022-11-18T17:22:39;6.90;;;4.50;;
9496;SDS011;4786;51.270;4.456;2022-11-18T17:25:05;7.63;;;4.07;;
9496;SDS011;4786;51.270;4.456;2022-11-18T17:27:31;6.47;;;4.50;;
9496;SDS011;4786;51.270;4.456;2022-11-18T17:29:57;7.90;;;4.33;;
9496;SDS011;4786;51.270;4.456;2022-11-18T17:32:23;9.07;;;4.57;;
9496;SDS011;4786;51.270;4.456;2022-11-18T17:34:49;9.77;;;4.53;;
9496;SDS011;4786;51.270;4.456;2022-11-18T17:37:15;7.47;;;4.40;;
9496;SDS011;4786;51.270;4.456;2022-11-18T17:39:41;8.03;;;4.10;;
9496;SDS011;4786;51.270;4.456;2022-11-18T17:42:07;8.73;;;3.70;;
9496;SDS011;4786;51.270;4.456;2022-11-18T17:44:39;10.57;;;4.70;;
9496;SDS011;4786;51.270;4.456;2022-11-18T17:47:05;5.43;;;4.17;;
9496;SDS011;4786;51.270;4.456;2022-11-18T17:49:31;6.90;;;4.83;;
9496;SDS011;4786;51.270;4.456;2022-11-18T17:51:57;8.87;;;4.87;;
9496;SDS011;4786;51.270;4.456;2022-11-18T17:54:22;7.20;;;4.00;;